createdAt,value
2022-11-15T06:01:41.050Z,11.20
2022-11-15T06:06:42.973Z,11.20
2022-11-15T06:11:44.851Z,11.30
2022-11-15T06:16:46.655Z,11.30
2022-11-15T06:21:48.569Z,11.20
2022-11-15T06:26:50.356Z,11.30
2022-11-15T06:31:52.220Z,11.30
2022-11-15T06:36:54.074Z,11.20
2022-11-15T06:41:56.053Z,11.20
2022-11-15T06:46:57.908Z,11.20
2022-11-15T06:51:59.694Z,11.20
2022-11-15T06:57:05.497Z,11.20
2022-11-15T07:02:07.333Z,11.10
2022-11-15T07:07:09.243Z,11.10
2022-11-15T07:12:11.193Z,11.10
2022-11-15T07:17:13.125Z,11.10
2022-11-15T07:22:14.938Z,11.00
2022-11-15T07:27:16.727Z,11.00
2022-11-15T07:32:18.574Z,11.00
2022-11-15T07:37:20.382Z,10.90
2022-11-15T07:42:48.612Z,10.90
2022-11-15T07:47:50.921Z,11.00
2022-11-15T07:52:58.900Z,10.90
2022-11-15T07:58:11.952Z,10.90
2022-11-15T08:03:16.206Z,10.90
2022-11-15T08:08:18.039Z,10.90
2022-11-15T08:13:20.449Z,10.90
2022-11-15T08:18:22.318Z,10.90
2022-11-15T08:23:24.130Z,10.90
2022-11-15T08:28:25.982Z,10.90
2022-11-15T08:33:29.007Z,10.90
2022-11-15T08:38:31.924Z,10.90
2022-11-15T08:43:34.624Z,10.90
2022-11-15T08:48:36.825Z,10.90
2022-11-15T08:53:38.847Z,10.90
2022-11-15T08:58:41.330Z,10.90
2022-11-15T09:03:43.190Z,10.90
2022-11-15T09:08:51.889Z,11.00
2022-11-15T09:13:54.758Z,11.00
2022-11-15T09:18:56.603Z,11.00
2022-11-15T09:23:58.709Z,11.00
2022-11-15T09:29:02.338Z,11.00
2022-11-15T09:34:04.131Z,11.00
2022-11-15T09:39:05.961Z,11.00
2022-11-15T09:44:25.852Z,11.00
2022-11-15T09:49:29.510Z,11.00
2022-11-15T09:54:55.503Z,11.00
2022-11-15T10:00:30.972Z,11.10
2022-11-15T10:05:27.417Z,11.10
2022-11-15T10:10:34.871Z,11.10
2022-11-15T10:15:36.682Z,11.10
2022-11-15T10:21:00.417Z,11.10
2022-11-15T10:26:07.021Z,11.20
2022-11-15T10:31:26.902Z,11.20
2022-11-15T10:36:29.529Z,11.20
2022-11-15T10:41:36.144Z,11.20
2022-11-15T10:46:46.490Z,11.20
2022-11-15T10:51:51.964Z,11.20
2022-11-15T10:56:56.057Z,11.30
2022-11-15T11:01:58.052Z,11.30
2022-11-15T11:07:00.982Z,11.40
2022-11-15T11:12:05.119Z,11.40
2022-11-15T11:17:30.396Z,11.50
2022-11-15T11:22:32.652Z,11.60
2022-11-15T11:27:43.537Z,11.60
2022-11-15T11:33:10.324Z,11.70
2022-11-15T11:38:40.634Z,11.80
2022-11-15T11:43:51.984Z,11.90
2022-11-15T11:48:59.652Z,11.90
2022-11-15T11:54:13.613Z,12.00
2022-11-15T11:59:34.857Z,12.00
2022-11-15T12:04:41.266Z,12.10
2022-11-15T12:09:56.414Z,12.20
2022-11-15T12:15:05.742Z,12.30
2022-11-15T12:20:17.302Z,12.40
2022-11-15T12:25:19.131Z,12.50
2022-11-15T12:30:22.116Z,12.60
2022-11-15T12:35:37.057Z,12.60
2022-11-15T12:40:40.529Z,12.60
2022-11-15T12:45:44.638Z,12.60
2022-11-15T12:50:55.337Z,12.70
2022-11-15T12:56:18.408Z,12.70
2022-11-15T13:01:36.148Z,12.60
2022-11-15T13:06:41.702Z,12.60
2022-11-15T13:11:49.168Z,12.60
2022-11-15T13:16:59.336Z,12.60
2022-11-15T13:22:44.439Z,12.70
2022-11-15T13:27:49.199Z,12.70
2022-11-15T13:32:51.945Z,12.70
2022-11-15T13:37:56.143Z,12.70
2022-11-15T13:42:59.315Z,12.60
2022-11-15T13:48:04.208Z,12.70
2022-11-15T13:53:06.650Z,12.70
2022-11-15T13:58:10.360Z,12.70
2022-11-15T14:03:26.217Z,12.70
2022-11-15T14:08:28.148Z,12.70
2022-11-15T14:13:32.300Z,12.70
2022-11-15T14:18:46.295Z,12.70
2022-11-15T14:23:50.075Z,12.70
2022-11-15T14:28:51.930Z,12.70
2022-11-15T14:33:53.800Z,12.70
2022-11-15T14:38:56.071Z,12.70
2022-11-15T14:43:57.871Z,12.70
2022-11-15T14:48:59.690Z,12.60
2022-11-15T14:54:01.751Z,12.60
2022-11-15T14:59:03.562Z,12.60
2022-11-15T15:04:05.327Z,12.50
2022-11-15T15:09:07.304Z,12.60
2022-11-15T15:14:09.602Z,12.50
2022-11-15T15:19:11.570Z,12.50
2022-11-15T15:24:16.754Z,12.50
2022-11-15T15:29:18.598Z,12.50
2022-11-15T15:34:20.440Z,12.40
2022-11-15T15:39:22.368Z,12.40
2022-11-15T15:44:24.509Z,12.40
2022-11-15T15:49:26.341Z,12.40
2022-11-15T15:54:28.225Z,12.40
2022-11-15T15:59:30.061Z,12.40
2022-11-15T16:04:31.840Z,12.50
2022-11-15T16:09:52.158Z,12.50
2022-11-15T16:14:54.047Z,12.40
2022-11-15T16:19:55.987Z,12.40
2022-11-15T16:24:58.018Z,12.40
2022-11-15T16:30:00.085Z,12.30
2022-11-15T16:35:01.993Z,12.30
2022-11-15T16:40:04.161Z,12.30
2022-11-15T16:45:06.545Z,12.20
2022-11-15T16:50:18.701Z,12.10
2022-11-15T16:55:22.184Z,12.00
2022-11-15T17:00:28.130Z,12.00
2022-11-15T17:05:30.276Z,11.90
2022-11-15T17:10:32.067Z,11.80
2022-11-15T17:15:34.179Z,11.80
2022-11-15T17:20:40.672Z,11.70
